Time;durP1;ratioP1;P1;durP2;ratioP2;P2;SDS_P1;SDS_P2;PMS_P1;PMS_P2;Temp;Humidity;BMP_temperature;BMP_pressure;BME280_temperature;BME280_humidity;BME280_pressure;Samples;Min_cycle;Max_cycle;Signal;HPM_P1;HPM_P2
2024/03/11 00:02:27;;;;;;;10.25;5.85;;;6.30;86.50;;;;;;5036657;28;20033;-64
2024/03/11 00:04:54;;;;;;;14.60;6.53;;;6.20;86.90;;;;;;5032766;28;20064;-64
2024/03/11 00:07:20;;;;;;;11.68;5.70;;;6.20;87.00;;;;;;5032556;28;20107;-64
2024/03/11 00:09:45;;;;;;;10.50;5.90;;;6.10;87.40;;;;;;5034414;28;20108;-64
2024/03/11 00:12:11;;;;;;;11.43;6.05;;;6.10;87.30;;;;;;5034539;28;20505;-66
2024/03/11 00:14:39;;;;;;;11.48;5.93;;;6.00;87.60;;;;;;5034604;28;20033;-64
2024/03/11 00:17:05;;;;;;;11.50;5.88;;;6.00;87.90;;;;;;5036595;28;20033;-64
2024/03/11 00:19:31;;;;;;;12.63;6.10;;;6.00;87.80;;;;;;5041503;28;20072;-64
2024/03/11 00:21:58;;;;;;;10.32;5.72;;;5.90;87.90;;;;;;5037579;28;20067;-64
2024/03/11 00:24:24;;;;;;;11.30;5.60;;;6.00;88.00;;;;;;5038845;28;20041;-64
2024/03/11 00:26:51;;;;;;;11.55;5.95;;;5.90;88.10;;;;;;5044935;28;20059;-65
2024/03/11 00:29:17;;;;;;;15.82;6.63;;;5.80;88.30;;;;;;5037055;28;20100;-64
2024/03/11 00:31:44;;;;;;;11.93;6.07;;;5.90;88.30;;;;;;5037501;28;20040;-64
2024/03/11 00:34:09;;;;;;;11.85;5.35;;;6.00;88.00;;;;;;5036165;28;20041;-64
2024/03/11 00:36:35;;;;;;;11.50;5.72;;;6.10;88.00;;;;;;5034630;28;20036;-64
2024/03/11 00:39:01;;;;;;;11.13;5.65;;;6.10;88.00;;;;;;5033384;28;20116;-65
2024/03/11 00:41:27;;;;;;;11.10;5.88;;;6.20;87.60;;;;;;5033289;28;20156;-63
2024/03/11 00:43:53;;;;;;;14.82;6.30;;;6.30;87.50;;;;;;5029893;28;20107;-64
2024/03/11 00:46:18;;;;;;;10.60;5.65;;;6.30;87.30;;;;;;5032736;28;20029;-63
2024/03/11 00:48:45;;;;;;;11.07;5.47;;;6.30;87.10;;;;;;5040552;28;20033;-63
2024/03/11 00:51:10;;;;;;;12.43;6.10;;;6.40;87.10;;;;;;5042655;28;20334;-64
2024/03/11 00:53:37;;;;;;;11.77;6.65;;;6.50;87.20;;;;;;5036245;28;20048;-64
2024/03/11 00:56:03;;;;;;;9.82;5.25;;;6.50;87.00;;;;;;5028063;28;20045;-63
2024/03/11 00:58:28;;;;;;;12.68;5.15;;;6.50;86.90;;;;;;5032412;28;20339;-64
2024/03/11 01:00:55;;;;;;;12.77;5.93;;;6.60;86.80;;;;;;5037323;28;20433;-63
2024/03/11 01:03:22;;;;;;;11.85;5.72;;;6.60;86.60;;;;;;5033581;28;20033;-64
2024/03/11 01:05:49;;;;;;;10.82;5.82;;;6.60;86.70;;;;;;5030009;28;20098;-63
2024/03/11 01:08:16;;;;;;;12.18;5.65;;;6.60;86.60;;;;;;5032716;28;20382;-64
2024/03/11 01:10:41;;;;;;;11.50;5.95;;;6.60;86.60;;;;;;5034236;28;20119;-64
2024/03/11 01:13:07;;;;;;;11.75;6.20;;;6.60;86.60;;;;;;5034739;28;20132;-65
2024/03/11 01:15:32;;;;;;;12.45;5.65;;;6.60;86.40;;;;;;5034758;28;20033;-64
2024/03/11 01:17:58;;;;;;;11.75;5.22;;;6.60;86.50;;;;;;5034400;28;20053;-64
2024/03/11 01:20:24;;;;;;;10.43;5.13;;;6.60;86.30;;;;;;5040511;28;20226;-64
2024/03/11 01:22:50;;;;;;;10.85;4.95;;;6.60;86.40;;;;;;5031934;28;20288;-64
2024/03/11 01:25:15;;;;;;;11.30;5.97;;;6.60;86.50;;;;;;5035761;28;20155;-65
2024/03/11 01:27:42;;;;;;;11.70;5.97;;;6.60;86.50;;;;;;5032584;28;20060;-64
2024/03/11 01:30:09;;;;;;;10.85;5.40;;;6.60;86.60;;;;;;5032074;28;20311;-63
2024/03/11 01:32:37;;;;;;;10.65;5.45;;;6.60;86.50;;;;;;5032950;28;20445;-64
2024/03/11 01:35:03;;;;;;;9.82;5.28;;;6.60;86.70;;;;;;5030833;28;20074;-63
2024/03/11 01:37:29;;;;;;;10.48;5.40;;;6.60;86.70;;;;;;5035138;28;20136;-63
2024/03/11 01:39:55;;;;;;;10.68;5.65;;;6.60;86.70;;;;;;5029949;28;20125;-63
2024/03/11 01:42:21;;;;;;;11.07;5.70;;;6.60;87.00;;;;;;5028726;28;20143;-64
2024/03/11 01:44:51;;;;;;;10.52;5.60;;;6.60;86.80;;;;;;5033841;28;20446;-64
2024/03/11 01:47:19;;;;;;;10.00;5.32;;;6.60;86.80;;;;;;5034468;28;20116;-64
2024/03/11 01:49:47;;;;;;;9.48;5.13;;;6.60;86.90;;;;;;5032856;28;20029;-63
2024/03/11 01:52:16;;;;;;;10.27;5.55;;;6.60;86.70;;;;;;5031115;28;20116;-66
2024/03/11 01:54:42;;;;;;;11.82;5.22;;;6.60;86.80;;;;;;5038844;28;20112;-65
2024/03/11 01:57:10;;;;;;;9.52;5.13;;;6.60;86.80;;;;;;5029407;28;20038;-63
2024/03/11 01:59:37;;;;;;;10.88;5.60;;;6.60;87.10;;;;;;5030949;28;20381;-64
2024/03/11 02:02:07;;;;;;;11.30;6.40;;;6.60;86.90;;;;;;5029987;28;20033;-63
2024/03/11 02:04:38;;;;;;;11.13;6.18;;;6.60;86.80;;;;;;5031591;28;20449;-65
2024/03/11 02:07:05;;;;;;;10.00;5.05;;;6.60;86.90;;;;;;5025322;28;20112;-63
2024/03/11 02:09:30;;;;;;;10.70;5.32;;;6.50;86.90;;;;;;5029113;28;20218;-64
2024/03/11 02:11:56;;;;;;;8.48;5.07;;;6.50;87.40;;;;;;5028323;28;20552;-63
2024/03/11 02:14:22;;;;;;;11.82;5.90;;;6.40;87.30;;;;;;5026245;28;20110;-63
2024/03/11 02:16:48;;;;;;;9.82;5.18;;;6.30;87.40;;;;;;5036602;28;20032;-64
2024/03/11 02:19:17;;;;;;;11.00;5.07;;;6.30;87.70;;;;;;5035512;28;20056;-64
2024/03/11 02:21:45;;;;;;;9.18;4.03;;;6.30;87.60;;;;;;5029461;28;20037;-64
2024/03/11 02:24:15;;;;;;;11.15;5.32;;;6.30;87.60;;;;;;5030139;28;20041;-64
2024/03/11 02:26:42;;;;;;;12.20;5.63;;;6.30;87.60;;;;;;5029172;28;20429;-64
2024/03/11 02:29:09;;;;;;;11.82;5.85;;;6.30;87.70;;;;;;5032943;28;20056;-64
2024/03/11 02:31:35;;;;;;;13.82;6.70;;;6.30;87.70;;;;;;5032400;28;20017;-64
2024/03/11 02:34:00;;;;;;;11.35;5.30;;;6.30;87.70;;;;;;5034130;28;20100;-63
2024/03/11 02:36:26;;;;;;;11.07;5.60;;;6.30;87.60;;;;;;5030091;28;20052;-64
2024/03/11 02:38:51;;;;;;;10.90;5.60;;;6.40;87.60;;;;;;5029451;28;20033;-64
2024/03/11 02:41:17;;;;;;;14.02;6.65;;;6.40;87.50;;;;;;5029180;28;20043;-64
2024/03/11 02:43:42;;;;;;;11.27;6.13;;;6.40;87.60;;;;;;5013194;28;20603;-63
2024/03/11 02:46:08;;;;;;;10.57;5.22;;;6.40;87.50;;;;;;5007057;28;20081;-63
2024/03/11 02:48:33;;;;;;;10.77;5.82;;;6.40;87.60;;;;;;5010299;28;20033;-63
2024/03/11 02:51:00;;;;;;;12.23;6.43;;;6.40;87.50;;;;;;5014827;28;20038;-63
2024/03/11 02:53:30;;;;;;;11.48;5.35;;;6.40;87.60;;;;;;5014358;28;20030;-64
2024/03/11 02:55:56;;;;;;;10.55;6.32;;;6.30;87.60;;;;;;5015008;28;20069;-63
2024/03/11 02:58:21;;;;;;;13.23;6.20;;;6.30;87.70;;;;;;5008195;28;20462;-64
2024/03/11 03:00:47;;;;;;;14.93;6.50;;;6.30;87.80;;;;;;5009985;28;20065;-64
2024/03/11 03:03:12;;;;;;;12.70;6.40;;;6.30;87.80;;;;;;5015497;28;20037;-64
2024/03/11 03:05:39;;;;;;;10.32;5.15;;;6.30;87.80;;;;;;5012316;28;20022;-64
2024/03/11 03:08:05;;;;;;;9.55;4.65;;;6.30;87.90;;;;;;5014193;28;20470;-63
2024/03/11 03:10:31;;;;;;;11.63;5.75;;;6.30;88.00;;;;;;5015151;28;20104;-63
2024/03/11 03:12:56;;;;;;;9.90;5.60;;;6.30;88.00;;;;;;5007471;28;20051;-64
2024/03/11 03:15:22;;;;;;;11.95;5.65;;;6.30;88.00;;;;;;5007971;28;20408;-66
2024/03/11 03:17:48;;;;;;;11.50;5.35;;;6.20;88.10;;;;;;5008158;28;20049;-63
2024/03/11 03:20:14;;;;;;;13.70;5.88;;;6.20;88.20;;;;;;5019729;28;20021;-64
2024/03/11 03:22:40;;;;;;;12.35;5.70;;;6.20;88.20;;;;;;5017562;28;20040;-64
2024/03/11 03:25:06;;;;;;;10.57;5.70;;;6.20;88.40;;;;;;5013112;28;20025;-63
2024/03/11 03:27:32;;;;;;;8.45;5.13;;;6.10;88.50;;;;;;5020708;28;20121;-63
2024/03/11 03:29:58;;;;;;;9.52;5.20;;;6.10;88.50;;;;;;5016217;28;20128;-63
2024/03/11 03:32:24;;;;;;;13.20;6.38;;;6.10;88.60;;;;;;5021894;28;20053;-63
2024/03/11 03:34:50;;;;;;;13.60;6.30;;;6.10;88.90;;;;;;5016168;28;20060;-64
2024/03/11 03:37:16;;;;;;;10.45;5.78;;;6.10;89.00;;;;;;5015239;28;20112;-64
2024/03/11 03:39:41;;;;;;;12.00;5.97;;;6.00;89.10;;;;;;5016283;28;20132;-63
2024/03/11 03:42:07;;;;;;;10.02;5.68;;;5.90;89.20;;;;;;5029321;28;20131;-64
2024/03/11 03:44:32;;;;;;;14.20;5.15;;;5.90;89.40;;;;;;5035607;28;20433;-63
2024/03/11 03:46:58;;;;;;;11.80;5.75;;;5.80;89.50;;;;;;5032080;28;20125;-65
2024/03/11 03:49:23;;;;;;;10.48;5.10;;;5.80;89.50;;;;;;5040201;28;20304;-64
2024/03/11 03:51:49;;;;;;;14.02;6.10;;;5.80;89.70;;;;;;5033401;28;20052;-64
2024/03/11 03:54:17;;;;;;;10.57;5.30;;;5.80;89.70;;;;;;5034722;28;20037;-64
2024/03/11 03:56:43;;;;;;;12.98;5.88;;;5.80;89.80;;;;;;5043957;28;20033;-65
2024/03/11 03:59:08;;;;;;;11.45;6.07;;;5.80;89.80;;;;;;5033668;28;20207;-64
2024/03/11 04:01:34;;;;;;;13.20;5.97;;;5.90;89.90;;;;;;5036588;28;20045;-64
2024/03/11 04:04:00;;;;;;;14.38;5.57;;;6.00;89.80;;;;;;5040098;28;20040;-64
2024/03/11 04:06:25;;;;;;;10.50;5.25;;;5.90;89.70;;;;;;5034109;28;20132;-64
2024/03/11 04:08:51;;;;;;;10.45;5.13;;;6.00;89.70;;;;;;5036495;28;20033;-65
2024/03/11 04:11:16;;;;;;;11.93;6.03;;;6.00;89.70;;;;;;5038120;28;20457;-63
2024/03/11 04:13:42;;;;;;;12.05;6.18;;;6.00;89.60;;;;;;5035556;28;20037;-65
2024/03/11 04:16:07;;;;;;;11.35;5.85;;;6.10;89.50;;;;;;5036698;28;20114;-65
2024/03/11 04:18:33;;;;;;;11.73;5.50;;;6.10;89.50;;;;;;5038472;28;20033;-65
2024/03/11 04:20:59;;;;;;;9.98;5.28;;;6.10;89.70;;;;;;5030765;28;20406;-65
2024/03/11 04:23:28;;;;;;;11.90;5.43;;;6.10;89.60;;;;;;5030937;28;20025;-65
2024/03/11 04:25:54;;;;;;;10.02;5.13;;;6.10;89.60;;;;;;5033688;28;20028;-65
2024/03/11 04:28:21;;;;;;;11.75;5.93;;;6.10;89.50;;;;;;5040996;28;20031;-65
2024/03/11 04:30:47;;;;;;;12.73;6.35;;;6.10;89.50;;;;;;5037424;28;20032;-65
2024/03/11 04:33:16;;;;;;;10.80;5.22;;;6.10;89.50;;;;;;5034536;28;20116;-64
2024/03/11 04:35:42;;;;;;;10.02;5.30;;;6.10;89.50;;;;;;5035645;28;20446;-66
2024/03/11 04:38:08;;;;;;;12.90;5.43;;;6.10;89.50;;;;;;5030091;28;20094;-65
2024/03/11 04:40:36;;;;;;;11.93;5.90;;;6.10;89.50;;;;;;5038410;28;20513;-65
2024/03/11 04:43:03;;;;;;;9.93;5.35;;;6.10;89.60;;;;;;5036102;28;20056;-65
2024/03/11 04:45:30;;;;;;;11.95;5.88;;;6.10;89.50;;;;;;5030058;28;20422;-65
2024/03/11 04:47:57;;;;;;;11.32;5.82;;;6.10;89.50;;;;;;5038410;28;20078;-66
2024/03/11 04:50:26;;;;;;;9.35;5.22;;;6.10;89.60;;;;;;5029876;28;20029;-65
2024/03/11 04:52:59;;;;;;;13.10;5.70;;;6.10;89.40;;;;;;5031980;28;20440;-65
2024/03/11 04:55:26;;;;;;;11.02;5.82;;;6.10;89.50;;;;;;5032360;28;20102;-65
2024/03/11 04:57:52;;;;;;;10.77;5.55;;;6.10;89.40;;;;;;5036632;28;20029;-64
2024/03/11 05:00:18;;;;;;;10.68;5.50;;;6.20;89.40;;;;;;5034135;28;20087;-65
2024/03/11 05:02:44;;;;;;;9.98;5.40;;;6.20;89.30;;;;;;5038014;28;20033;-65
2024/03/11 05:05:10;;;;;;;11.68;5.75;;;6.20;89.40;;;;;;5031635;28;20423;-65
2024/03/11 05:07:39;;;;;;;10.20;4.78;;;6.20;89.40;;;;;;5029238;28;20095;-65
2024/03/11 05:10:05;;;;;;;12.30;5.72;;;6.20;89.40;;;;;;5033231;28;20124;-65
2024/03/11 05:12:31;;;;;;;10.45;5.70;;;6.20;89.50;;;;;;5031672;28;20034;-65
2024/03/11 05:15:01;;;;;;;11.30;5.40;;;6.20;89.40;;;;;;5029071;28;20117;-66
2024/03/11 05:17:26;;;;;;;10.73;5.57;;;6.10;89.40;;;;;;5040504;28;20094;-65
2024/03/11 05:19:52;;;;;;;12.30;5.78;;;6.10;89.60;;;;;;5032148;28;20307;-65
2024/03/11 05:22:18;;;;;;;10.52;5.38;;;6.10;89.60;;;;;;5031101;28;20029;-66
2024/03/11 05:24:44;;;;;;;9.23;4.88;;;6.10;89.70;;;;;;5036910;28;20389;-65
2024/03/11 05:27:09;;;;;;;8.40;4.72;;;6.10;89.80;;;;;;5032938;28;20059;-64
2024/03/11 05:29:35;;;;;;;10.98;5.72;;;6.10;89.90;;;;;;5034178;28;20068;-63
2024/03/11 05:32:02;;;;;;;9.38;5.03;;;6.10;89.90;;;;;;5037389;28;20033;-64
2024/03/11 05:34:27;;;;;;;12.15;5.78;;;6.10;89.80;;;;;;5026806;28;20128;-65
2024/03/11 05:36:53;;;;;;;14.68;5.40;;;6.20;89.70;;;;;;5030207;28;20124;-65
2024/03/11 05:39:19;;;;;;;12.32;6.43;;;6.30;89.50;;;;;;5034007;28;20025;-64
2024/03/11 05:41:45;;;;;;;11.13;5.63;;;6.30;89.50;;;;;;5032684;28;20072;-65
2024/03/11 05:44:11;;;;;;;10.40;5.78;;;6.30;89.50;;;;;;5031150;28;20037;-64
2024/03/11 05:46:37;;;;;;;11.77;5.78;;;6.30;89.30;;;;;;5028719;28;20076;-64
2024/03/11 05:49:05;;;;;;;10.55;5.03;;;6.40;89.10;;;;;;5028908;28;20052;-65
2024/03/11 05:51:31;;;;;;;11.35;5.05;;;6.40;89.00;;;;;;5028718;28;20143;-66
2024/03/11 05:53:58;;;;;;;10.32;5.03;;;6.50;89.00;;;;;;5027556;28;20053;-64
2024/03/11 05:56:24;;;;;;;10.48;4.80;;;6.50;89.20;;;;;;5031857;28;20478;-64
2024/03/11 05:58:50;;;;;;;10.05;5.32;;;6.50;89.20;;;;;;5031826;28;20040;-65
2024/03/11 06:01:16;;;;;;;11.52;5.90;;;6.50;89.30;;;;;;5028537;28;20338;-64
2024/03/11 06:03:41;;;;;;;11.00;5.22;;;6.50;89.20;;;;;;5029584;28;20133;-64
2024/03/11 06:06:07;;;;;;;8.50;5.40;;;6.50;89.10;;;;;;5032529;28;20136;-64
2024/03/11 06:08:32;;;;;;;9.75;4.88;;;6.60;89.00;;;;;;5029722;28;20118;-64
2024/03/11 06:10:58;;;;;;;10.60;4.97;;;6.60;89.00;;;;;;5030571;28;20033;-64
2024/03/11 06:13:23;;;;;;;8.80;5.07;;;6.60;88.90;;;;;;5028727;28;20101;-64
2024/03/11 06:15:49;;;;;;;9.68;5.45;;;6.60;89.00;;;;;;5024382;28;20116;-65
2024/03/11 06:18:14;;;;;;;10.85;4.75;;;6.60;89.00;;;;;;5036015;28;20044;-63
2024/03/11 06:20:42;;;;;;;11.60;4.82;;;6.60;89.00;;;;;;5031637;28;20034;-64
2024/03/11 06:23:07;;;;;;;8.18;4.75;;;6.60;89.00;;;;;;5032713;28;20025;-63
2024/03/11 06:25:33;;;;;;;12.23;5.35;;;6.60;88.80;;;;;;5029314;28;20068;-65
2024/03/11 06:27:59;;;;;;;10.50;5.75;;;6.60;88.70;;;;;;5038953;28;20033;-64
2024/03/11 06:30:25;;;;;;;9.35;4.88;;;6.60;88.90;;;;;;5041152;28;20028;-64
2024/03/11 06:32:51;;;;;;;11.30;5.63;;;6.70;88.90;;;;;;5037216;28;20029;-65
2024/03/11 06:35:17;;;;;;;11.18;5.30;;;6.60;88.80;;;;;;5030976;28;20382;-65
2024/03/11 06:37:43;;;;;;;9.90;4.43;;;6.70;88.70;;;;;;5030581;28;20122;-65
2024/03/11 06:40:11;;;;;;;8.95;4.68;;;6.70;88.60;;;;;;5032218;28;20396;-65
2024/03/11 06:42:37;;;;;;;11.90;5.05;;;6.80;88.60;;;;;;5032634;28;20057;-65
2024/03/11 06:45:03;;;;;;;9.93;4.70;;;6.80;88.40;;;;;;5039958;28;20864;-65
2024/03/11 06:47:29;;;;;;;11.80;5.75;;;6.80;88.40;;;;;;5033444;28;20347;-65
2024/03/11 06:49:54;;;;;;;9.32;4.47;;;6.80;88.30;;;;;;5032060;28;20059;-65
2024/03/11 06:52:20;;;;;;;8.60;4.70;;;6.90;88.40;;;;;;5037166;28;20113;-64
2024/03/11 06:54:45;;;;;;;9.55;4.63;;;6.90;88.30;;;;;;5033976;28;20036;-67
2024/03/11 06:57:11;;;;;;;9.00;4.88;;;6.90;88.30;;;;;;5040257;28;20223;-64
2024/03/11 06:59:37;;;;;;;11.90;5.18;;;6.90;88.20;;;;;;5034610;28;20090;-63
2024/03/11 07:02:03;;;;;;;11.13;5.80;;;7.00;88.00;;;;;;5037405;28;20041;-63
2024/03/11 07:04:31;;;;;;;12.52;5.13;;;7.00;87.90;;;;;;5039078;28;20085;-65
2024/03/11 07:06:58;;;;;;;10.43;6.07;;;7.10;88.00;;;;;;5029455;28;20083;-65
2024/03/11 07:09:25;;;;;;;9.68;4.65;;;7.10;88.00;;;;;;5034022;28;20226;-65
2024/03/11 07:11:51;;;;;;;11.85;5.85;;;7.10;87.80;;;;;;5034556;28;20406;-65
2024/03/11 07:14:16;;;;;;;11.23;5.28;;;7.20;87.60;;;;;;5036479;28;20127;-65
2024/03/11 07:16:43;;;;;;;8.32;4.13;;;7.30;87.60;;;;;;5040220;28;20041;-66
2024/03/11 07:19:09;;;;;;;11.70;4.75;;;7.30;87.20;;;;;;5038529;28;20116;-65
2024/03/11 07:21:35;;;;;;;11.50;5.20;;;7.30;87.30;;;;;;5036234;28;20069;-65
2024/03/11 07:24:01;;;;;;;10.77;5.35;;;7.30;87.30;;;;;;5038601;28;20486;-66
2024/03/11 07:26:26;;;;;;;9.18;4.97;;;7.40;87.20;;;;;;5037809;28;20112;-65
2024/03/11 07:28:52;;;;;;;10.57;5.20;;;7.50;87.00;;;;;;5038086;28;20045;-65
2024/03/11 07:31:17;;;;;;;11.75;5.40;;;7.50;87.00;;;;;;5038964;28;20047;-65
2024/03/11 07:33:47;;;;;;;10.40;5.07;;;7.60;86.70;;;;;;5034885;28;20041;-65
2024/03/11 07:36:15;;;;;;;11.85;5.18;;;7.60;86.70;;;;;;5036233;28;20075;-64
2024/03/11 07:38:41;;;;;;;12.05;5.57;;;7.60;86.80;;;;;;5041031;28;20069;-66
2024/03/11 07:41:08;;;;;;;11.18;4.88;;;7.50;86.60;;;;;;5035529;28;20022;-66
2024/03/11 07:43:34;;;;;;;9.35;4.53;;;7.60;86.70;;;;;;5034806;28;20369;-65
2024/03/11 07:46:03;;;;;;;9.25;4.80;;;7.60;86.60;;;;;;5036759;28;20033;-64
2024/03/11 07:48:29;;;;;;;7.85;4.63;;;7.50;86.80;;;;;;5039640;28;20401;-65
2024/03/11 07:50:55;;;;;;;9.70;5.20;;;7.50;86.80;;;;;;5041165;28;20033;-65
2024/03/11 07:53:20;;;;;;;9.93;4.97;;;7.50;86.80;;;;;;5036548;28;20037;-65
2024/03/11 07:55:47;;;;;;;9.02;5.00;;;7.50;87.10;;;;;;5039032;28;20034;-65
2024/03/11 07:58:14;;;;;;;9.90;5.20;;;7.50;86.90;;;;;;5035852;28;20033;-65
2024/03/11 08:00:41;;;;;;;11.65;5.43;;;7.50;87.20;;;;;;5033196;28;20045;-65
2024/03/11 08:03:06;;;;;;;10.43;5.35;;;7.50;87.00;;;;;;5041925;28;20025;-66
2024/03/11 08:05:34;;;;;;;9.27;4.85;;;7.50;87.20;;;;;;5041899;28;20122;-65
2024/03/11 08:07:59;;;;;;;9.52;4.55;;;7.50;87.20;;;;;;5042038;28;20396;-65
2024/03/11 08:10:25;;;;;;;9.25;4.68;;;7.60;87.30;;;;;;5039988;28;20029;-65
2024/03/11 08:12:51;;;;;;;9.32;4.55;;;7.60;87.10;;;;;;5034106;28;20079;-65
2024/03/11 08:15:17;;;;;;;9.95;4.40;;;7.60;87.10;;;;;;5037596;28;20037;-66
2024/03/11 08:17:46;;;;;;;11.82;5.38;;;7.60;87.10;;;;;;5031601;28;20175;-65
2024/03/11 08:20:16;;;;;;;13.90;5.65;;;7.60;87.00;;;;;;5039751;28;20041;-65
2024/03/11 08:22:43;;;;;;;12.60;5.00;;;7.60;86.90;;;;;;5035601;28;20059;-65
2024/03/11 08:25:11;;;;;;;15.90;5.55;;;7.60;87.00;;;;;;5033250;28;20033;-66
2024/03/11 08:27:40;;;;;;;9.98;5.18;;;7.70;87.00;;;;;;5031076;28;20052;-65
2024/03/11 08:30:09;;;;;;;9.05;4.72;;;7.70;87.30;;;;;;5034762;28;20028;-65
2024/03/11 08:32:35;;;;;;;10.52;5.30;;;7.70;87.20;;;;;;5032575;28;20040;-65
2024/03/11 08:35:01;;;;;;;9.18;5.07;;;7.70;87.20;;;;;;5036825;28;20059;-65
2024/03/11 08:37:27;;;;;;;10.13;5.18;;;7.70;87.40;;;;;;5036541;28;20377;-65
2024/03/11 08:39:53;;;;;;;9.23;4.97;;;7.70;87.30;;;;;;5032196;28;20017;-64
2024/03/11 08:42:21;;;;;;;9.90;4.90;;;7.80;87.00;;;;;;5031386;28;21342;-64
2024/03/11 08:44:51;;;;;;;10.15;4.70;;;7.90;86.80;;;;;;5038605;28;20474;-64
2024/03/11 08:47:18;;;;;;;10.27;5.47;;;8.00;86.70;;;;;;5040340;28;20056;-64
2024/03/11 08:49:44;;;;;;;11.43;5.32;;;8.00;86.60;;;;;;5035127;28;20033;-61
2024/03/11 08:52:12;;;;;;;9.88;4.72;;;8.10;86.50;;;;;;5032116;28;20034;-62
2024/03/11 08:54:40;;;;;;;10.02;4.80;;;8.10;86.50;;;;;;5035413;28;20086;-62
2024/03/11 08:57:05;;;;;;;11.95;5.43;;;8.10;86.40;;;;;;5030010;28;20039;-62
2024/03/11 08:59:31;;;;;;;11.82;5.28;;;8.10;86.40;;;;;;5032077;28;20108;-63
2024/03/11 09:01:57;;;;;;;8.25;4.80;;;8.10;86.40;;;;;;5032509;28;20089;-65
2024/03/11 09:04:28;;;;;;;9.02;5.03;;;8.10;86.30;;;;;;5035307;28;20033;-62
2024/03/11 09:06:56;;;;;;;8.70;4.97;;;8.20;86.60;;;;;;5038132;28;20025;-63
2024/03/11 09:09:24;;;;;;;8.50;5.03;;;8.20;86.50;;;;;;5033883;28;20114;-62
2024/03/11 09:11:56;;;;;;;12.65;5.32;;;8.20;86.30;;;;;;5037270;28;20029;-63
2024/03/11 09:14:32;;;;;;;9.77;4.82;;;8.30;86.40;;;;;;5030286;28;20123;-63
2024/03/11 09:17:00;;;;;;;8.88;4.75;;;8.30;86.10;;;;;;5034008;28;20029;-63
2024/03/11 09:19:25;;;;;;;10.75;4.72;;;8.30;86.30;;;;;;5037863;28;20085;-63
2024/03/11 09:21:52;;;;;;;10.32;4.97;;;8.30;86.40;;;;;;5034588;28;20037;-65
2024/03/11 09:24:19;;;;;;;7.88;4.68;;;8.40;86.60;;;;;;5034258;28;20047;-63
2024/03/11 09:26:45;;;;;;;10.90;5.53;;;8.40;86.60;;;;;;5031819;28;20393;-63
2024/03/11 09:29:15;;;;;;;10.90;5.13;;;8.40;86.40;;;;;;5031378;28;20173;-63
2024/03/11 09:31:42;;;;;;;11.43;4.85;;;8.50;86.30;;;;;;5036960;28;20421;-64
2024/03/11 09:34:08;;;;;;;9.77;4.70;;;8.40;86.50;;;;;;5028952;28;20358;-63
2024/03/11 09:36:35;;;;;;;10.98;4.93;;;8.50;86.50;;;;;;5033388;28;20029;-63
2024/03/11 09:39:01;;;;;;;11.43;5.57;;;8.40;86.60;;;;;;5033670;28;20486;-65
2024/03/11 09:41:39;;;;;;;10.63;5.60;;;8.40;86.50;;;;;;5034366;28;20135;-63
2024/03/11 09:44:17;;;;;;;10.15;4.97;;;8.50;86.60;;;;;;5035273;28;20025;-64
2024/03/11 09:46:45;;;;;;;7.43;4.25;;;8.30;86.90;;;;;;5042030;28;20032;-64
2024/03/11 09:49:14;;;;;;;12.68;6.00;;;8.30;87.10;;;;;;5025978;28;20048;-64
2024/03/11 09:51:47;;;;;;;10.52;5.22;;;8.30;87.40;;;;;;5029471;28;20026;-63
2024/03/11 09:54:14;;;;;;;8.70;5.00;;;8.20;87.40;;;;;;5030611;28;20092;-64
2024/03/11 09:56:41;;;;;;;11.32;5.10;;;8.20;87.70;;;;;;5041601;28;20029;-63
2024/03/11 09:59:09;;;;;;;12.00;5.80;;;8.10;87.90;;;;;;5029784;28;20616;-63
2024/03/11 10:01:42;;;;;;;12.63;5.35;;;8.10;88.20;;;;;;5034024;28;20153;-64
2024/03/11 10:04:09;;;;;;;9.10;4.75;;;8.20;88.50;;;;;;5036018;28;20114;-63
2024/03/11 10:06:39;;;;;;;8.98;5.13;;;8.20;89.10;;;;;;5031709;28;20535;-63
2024/03/11 10:09:08;;;;;;;10.70;4.95;;;8.10;89.70;;;;;;5042691;28;20107;-63
2024/03/11 10:11:34;;;;;;;10.02;5.60;;;8.10;90.20;;;;;;5040822;28;20043;-63
2024/03/11 10:14:19;;;;;;;10.38;5.80;;;8.00;90.70;;;;;;5034526;28;20122;-66
2024/03/11 10:16:44;;;;;;;10.35;5.95;;;8.00;90.80;;;;;;5028598;28;20427;-64
2024/03/11 10:19:13;;;;;;;11.30;5.95;;;8.00;90.70;;;;;;5031029;28;20091;-64
2024/03/11 10:21:39;;;;;;;9.23;5.78;;;8.00;90.90;;;;;;5035875;28;20661;-63
2024/03/11 10:24:05;;;;;;;11.10;5.57;;;8.00;91.00;;;;;;5036960;28;20124;-63
2024/03/11 10:26:33;;;;;;;8.73;4.68;;;7.90;91.50;;;;;;5042338;28;20061;-63
2024/03/11 10:29:00;;;;;;;11.05;5.82;;;7.80;91.70;;;;;;5034837;28;20060;-64
2024/03/11 10:31:28;;;;;;;9.98;5.60;;;7.80;92.00;;;;;;5036930;28;20055;-63
2024/03/11 10:34:13;;;;;;;10.32;5.30;;;7.80;92.20;;;;;;5036396;28;20044;-63
2024/03/11 10:36:40;;;;;;;9.38;4.97;;;7.80;92.10;;;;;;5030137;28;20048;-63
2024/03/11 10:41:50;;;;;;;11.57;5.50;;;8.10;92.20;;;;;;5032974;28;20061;-63
2024/03/11 10:44:19;;;;;;;10.65;5.05;;;8.30;92.20;;;;;;5034375;28;20030;-64
2024/03/11 10:46:44;;;;;;;13.00;5.53;;;8.50;91.20;;;;;;5036323;28;20087;-64
2024/03/11 10:49:14;;;;;;;10.60;5.47;;;8.60;90.60;;;;;;5031373;28;20138;-63
2024/03/11 10:51:45;;;;;;;12.20;5.53;;;8.60;90.30;;;;;;5034612;28;20094;-65
2024/03/11 10:54:22;;;;;;;11.75;5.93;;;8.60;89.90;;;;;;5023728;28;20059;-64
2024/03/11 10:56:52;;;;;;;9.57;5.18;;;8.70;90.00;;;;;;5037258;28;20091;-63
2024/03/11 10:59:21;;;;;;;9.98;4.90;;;8.80;89.60;;;;;;5035877;28;20068;-63
2024/03/11 11:01:53;;;;;;;10.45;5.38;;;8.90;89.60;;;;;;5041926;28;20029;-64
2024/03/11 11:04:19;;;;;;;9.43;5.10;;;8.80;89.00;;;;;;5035445;28;20033;-65
2024/03/11 11:06:48;;;;;;;9.85;5.95;;;9.00;89.10;;;;;;5030902;28;20509;-64
2024/03/11 11:09:14;;;;;;;10.48;5.53;;;9.10;89.00;;;;;;5038553;28;20367;-64
2024/03/11 11:11:51;;;;;;;11.70;5.95;;;9.10;88.30;;;;;;5036199;28;20073;-64
2024/03/11 11:14:20;;;;;;;9.65;4.97;;;9.00;88.00;;;;;;5035266;28;20089;-64
2024/03/11 11:16:49;;;;;;;8.82;5.10;;;9.10;88.40;;;;;;5037523;28;20087;-64
2024/03/11 11:19:22;;;;;;;11.20;6.05;;;9.10;87.90;;;;;;5034497;28;20045;-63
2024/03/11 11:21:50;;;;;;;10.65;5.70;;;9.40;88.30;;;;;;5033185;28;20022;-64
2024/03/11 11:24:30;;;;;;;10.40;4.97;;;9.60;87.90;;;;;;5032216;28;20063;-64
2024/03/11 11:27:01;;;;;;;9.50;5.28;;;9.60;87.00;;;;;;5032287;28;20053;-64
2024/03/11 11:29:29;;;;;;;;;;;9.80;87.20;;;;;;5027829;28;20045;-65
2024/03/11 11:32:06;;;;;;;9.48;4.85;;;9.80;86.90;;;;;;5034209;28;19924;-64
2024/03/11 11:34:45;;;;;;;10.32;5.43;;;9.80;86.60;;;;;;5031861;28;20045;-64
2024/03/11 11:37:29;;;;;;;9.70;5.05;;;9.70;86.70;;;;;;5041068;28;20064;-65
2024/03/11 11:39:55;;;;;;;10.55;4.90;;;9.70;86.60;;;;;;5040158;28;20135;-64
2024/03/11 11:42:39;;;;;;;11.40;5.53;;;9.70;86.50;;;;;;5038965;28;20190;-64
2024/03/11 11:45:13;;;;;;;10.27;5.13;;;9.80;86.60;;;;;;5039192;28;20392;-65
2024/03/11 11:47:39;;;;;;;10.02;5.90;;;9.90;86.30;;;;;;5040169;28;20029;-65
2024/03/11 11:50:26;;;;;;;10.10;5.38;;;10.00;86.50;;;;;;5037711;28;20165;-65
2024/03/11 11:53:02;;;;;;;10.85;5.38;;;10.00;85.80;;;;;;5033724;28;20232;-64
2024/03/11 11:55:28;;;;;;;12.05;5.95;;;10.10;85.40;;;;;;5035234;28;20037;-64
2024/03/11 11:58:10;;;;;;;11.18;5.75;;;10.00;85.90;;;;;;5032872;28;20532;-64
2024/03/11 12:00:40;;;;;;;11.80;5.53;;;10.20;85.70;;;;;;5029888;28;20056;-64
2024/03/11 12:03:21;;;;;;;8.70;4.75;;;10.20;85.60;;;;;;5041176;28;20044;-64
2024/03/11 12:06:03;;;;;;;14.00;6.05;;;10.70;84.70;;;;;;5042770;28;20033;-64
2024/03/11 12:08:30;;;;;;;10.30;6.13;;;11.20;82.80;;;;;;5035021;28;20418;-64
2024/03/11 12:11:15;;;;;;;11.05;5.85;;;11.20;82.00;;;;;;5034771;28;20083;-64
2024/03/11 12:13:47;;;;;;;12.10;5.40;;;11.40;81.70;;;;;;5032348;28;20056;-66
2024/03/11 12:16:20;;;;;;;11.98;6.35;;;11.40;81.80;;;;;;5035812;28;20135;-64
2024/03/11 12:19:00;;;;;;;10.93;5.53;;;11.30;82.00;;;;;;5035650;28;20099;-65
2024/03/11 12:21:31;;;;;;;11.30;6.32;;;11.40;82.40;;;;;;5037463;28;20059;-65
2024/03/11 12:23:57;;;;;;;12.43;6.50;;;11.30;81.60;;;;;;5038973;28;20116;-65
2024/03/11 12:26:23;;;;;;;12.77;6.45;;;11.20;81.70;;;;;;5055525;28;20200;-65
2024/03/11 12:29:02;;;;;;;12.32;6.07;;;11.20;82.10;;;;;;5040643;28;20056;-66
2024/03/11 12:31:32;;;;;;;11.13;5.78;;;11.30;82.20;;;;;;5034386;28;20446;-63
2024/03/11 12:34:00;;;;;;;12.85;6.72;;;11.20;82.30;;;;;;5034846;28;20746;-64
2024/03/11 12:36:26;;;;;;;12.38;6.47;;;11.20;82.30;;;;;;5041998;28;20116;-63
2024/03/11 12:38:52;;;;;;;11.55;6.20;;;11.10;82.80;;;;;;5038997;28;20342;-64
2024/03/11 12:41:42;;;;;;;10.85;5.72;;;11.00;83.20;;;;;;5036964;28;20055;-65
2024/03/11 12:44:11;;;;;;;11.40;5.80;;;11.20;83.00;;;;;;5031664;28;20476;-67
2024/03/11 12:46:37;;;;;;;9.82;5.82;;;11.20;81.90;;;;;;5037191;28;20055;-64
2024/03/11 12:49:04;;;;;;;9.95;5.47;;;11.40;82.50;;;;;;5030414;28;20122;-63
2024/03/11 12:51:30;;;;;;;13.05;6.00;;;11.30;82.50;;;;;;5038871;28;20433;-63
2024/03/11 12:54:22;;;;;;;9.25;5.35;;;11.30;82.40;;;;;;5035807;28;20116;-64